LIMJ/GOA METAR and TAF weather

Enter ICAO airport designator
Station Type Date Time Source
LIMJ METAR 2019/08/24 21:50 UTC NOAA

LIMJ 242150Z 03004KT CAVOK 24/18 Q1017


Station Type Date Time Source
LIMJ Decoded METAR 2019/08/24 21:50 UTC NOAA

Station name not available
Aug 24, 2019 - 05:50 PM EDT / 2019.08.24 2150 UTC
Wind: from the NNE (030 degrees) at 5 MPH (4 KT):0
Visibility: greater than 7 mile(s):0
Temperature: 75 F (24 C)
Dew Point: 64 F (18 C)
Relative Humidity: 69%
Pressure (altimeter): 30.03 in. Hg (1017 hPa)
ob: LIMJ 242150Z 03004KT CAVOK 24/18 Q1017
cycle: 22

Station Type Date Time Source
LIMJ TAF 2019/08/24 18:26 UTC NOAA

TAF LIMJ 241700Z 2418/2518 04008KT 9999 SCT040

Example: see airport list